Hudsonville, MI (49426)

10:29 AM EDT on August 31, 2015 (GMT -0400)
NW Hudsonville | | Change Station
CLOSE
Current Station
Personal Weather Station
Location: Hudsonville, MI
Elevation: 647 ft
Nearby Weather Stations

Elev 647 ft 42.87 °N, 85.87 °W | Updated 48 seconds ago

Overcast
Overcast
67.9 °F
Feels Like 67.9 °F
N
0.0
Wind Variable Wind from SW
Gusts 0.0 mph

Today
High -- | Low -- °F
--% Chance of Precip.
Yesterday
High -- | Low -- °F
Precip. -- in
7:06 AM 8:20 PM
Waning Gibbous, 95% visible
Pressure 30.09 in
Visibility 5.0 miles
Clouds Few 2400 ft
Dew Point 67 °F
Humidity 98%
Rainfall 0.00 in
Snow Depth Not available.
UV 3 out of 12
Pollen 10.40 out of 12
Air Quality Not available.
Flu Activity Not available.
METAR KBIV 311353Z AUTO 00000KT 5SM BR FEW024 20/18 A3010 RMK AO2 SLP189 T02000183
Pressure 30.09 in
Visibility 5.0 miles
Clouds Few 2400 ft
Dew Point 67 °F
Humidity 98%
Rainfall 0.00 in
Snow Depth Not available.
UV 3 out of 12
Pollen 10.40 out of 12
Air Quality Not available.
Flu Activity Not available.
METAR KBIV 311353Z AUTO 00000KT 5SM BR FEW024 20/18 A3010 RMK AO2 SLP189 T02000183

10-Day Weather Forecast

×

Almanac

Astronomy

Aug. 31, 2015 Rise Set
Actual Time
Civil Twilight
Nautical Twilight
Astronomical Twilight
Moon
Length of Visible Light
Length of Day
Tomorrow will be .
, % of the Moon is Illuminated

Today's Extremes

State Highs State Lows

Community

WunderPhotos

Upload Photos

1,851,248 photos uploaded!

WunderBlogs® & News

Nearby

Air Quality

  Air Quality AQ Index Pollutant
Not available.

Snow Depth

Station Depth Elevation

Earthquake Activity

City Distance Mag. Time & Date
Minimum magnitude displayed is 2.5.

Coastal Water Temperatures

Place Temperature

Stations

Nearby Weather Stations

Station Location Temp. Windchill Dew Point Humidity Wind Precip. Elev Updated Type